sensor_id;sensor_type;location;lat;lon;timestamp;P1;durP1;ratioP1;P2;durP2;ratioP2
32365;SDS011;18837;46.832;16.838;2023-12-28T00:01:19;9.30;;;7.13;;
32365;SDS011;18837;46.832;16.838;2023-12-28T00:03:44;9.53;;;7.57;;
32365;SDS011;18837;46.832;16.838;2023-12-28T00:06:10;9.40;;;7.47;;
32365;SDS011;18837;46.832;16.838;2023-12-28T00:08:36;8.77;;;7.27;;
32365;SDS011;18837;46.832;16.838;2023-12-28T00:11:01;9.90;;;7.13;;
32365;SDS011;18837;46.832;16.838;2023-12-28T00:13:27;10.70;;;6.87;;
32365;SDS011;18837;46.832;16.838;2023-12-28T00:15:53;8.30;;;6.40;;
32365;SDS011;18837;46.832;16.838;2023-12-28T00:18:19;9.53;;;7.57;;
32365;SDS011;18837;46.832;16.838;2023-12-28T00:20:45;9.30;;;7.30;;
32365;SDS011;18837;46.832;16.838;2023-12-28T00:23:10;8.87;;;7.10;;
32365;SDS011;18837;46.832;16.838;2023-12-28T00:25:36;9.27;;;7.30;;
32365;SDS011;18837;46.832;16.838;2023-12-28T00:28:02;9.17;;;7.10;;
32365;SDS011;18837;46.832;16.838;2023-12-28T00:30:28;8.20;;;7.13;;
32365;SDS011;18837;46.832;16.838;2023-12-28T00:32:53;8.80;;;7.23;;
32365;SDS011;18837;46.832;16.838;2023-12-28T00:35:19;9.00;;;7.30;;
32365;SDS011;18837;46.832;16.838;2023-12-28T00:37:47;9.33;;;7.40;;
32365;SDS011;18837;46.832;16.838;2023-12-28T00:40:14;11.37;;;7.67;;
32365;SDS011;18837;46.832;16.838;2023-12-28T00:42:39;10.07;;;7.80;;
32365;SDS011;18837;46.832;16.838;2023-12-28T00:45:06;11.13;;;8.00;;
32365;SDS011;18837;46.832;16.838;2023-12-28T00:47:33;9.23;;;7.50;;
32365;SDS011;18837;46.832;16.838;2023-12-28T00:49:58;10.40;;;8.20;;
32365;SDS011;18837;46.832;16.838;2023-12-28T00:52:24;10.63;;;7.80;;
32365;SDS011;18837;46.832;16.838;2023-12-28T00:54:50;9.43;;;8.30;;
32365;SDS011;18837;46.832;16.838;2023-12-28T00:57:16;11.00;;;9.10;;
32365;SDS011;18837;46.832;16.838;2023-12-28T00:59:41;11.90;;;8.97;;
32365;SDS011;18837;46.832;16.838;2023-12-28T01:02:08;11.90;;;9.73;;
32365;SDS011;18837;46.832;16.838;2023-12-28T01:04:34;11.67;;;9.57;;
32365;SDS011;18837;46.832;16.838;2023-12-28T01:07:00;12.37;;;9.57;;
32365;SDS011;18837;46.832;16.838;2023-12-28T01:09:27;13.13;;;9.23;;
32365;SDS011;18837;46.832;16.838;2023-12-28T01:11:53;11.80;;;9.20;;
32365;SDS011;18837;46.832;16.838;2023-12-28T01:14:19;12.37;;;9.43;;
32365;SDS011;18837;46.832;16.838;2023-12-28T01:16:45;11.20;;;9.40;;
32365;SDS011;18837;46.832;16.838;2023-12-28T01:19:10;12.43;;;9.03;;
32365;SDS011;18837;46.832;16.838;2023-12-28T01:21:36;12.27;;;9.40;;
32365;SDS011;18837;46.832;16.838;2023-12-28T01:24:02;13.33;;;9.33;;
32365;SDS011;18837;46.832;16.838;2023-12-28T01:26:28;11.27;;;9.43;;
32365;SDS011;18837;46.832;16.838;2023-12-28T01:28:53;12.77;;;9.57;;
32365;SDS011;18837;46.832;16.838;2023-12-28T01:31:19;13.40;;;9.47;;
32365;SDS011;18837;46.832;16.838;2023-12-28T01:33:45;13.03;;;9.97;;
32365;SDS011;18837;46.832;16.838;2023-12-28T01:36:15;11.47;;;9.47;;
32365;SDS011;18837;46.832;16.838;2023-12-28T01:38:41;13.27;;;10.60;;
32365;SDS011;18837;46.832;16.838;2023-12-28T01:41:07;12.77;;;9.87;;
32365;SDS011;18837;46.832;16.838;2023-12-28T01:43:33;12.77;;;9.90;;
32365;SDS011;18837;46.832;16.838;2023-12-28T01:45:59;15.90;;;10.50;;
32365;SDS011;18837;46.832;16.838;2023-12-28T01:48:25;11.60;;;9.70;;
32365;SDS011;18837;46.832;16.838;2023-12-28T01:50:50;12.77;;;9.97;;
32365;SDS011;18837;46.832;16.838;2023-12-28T01:53:16;13.23;;;10.23;;
32365;SDS011;18837;46.832;16.838;2023-12-28T01:55:43;13.43;;;10.23;;
32365;SDS011;18837;46.832;16.838;2023-12-28T01:58:09;14.10;;;10.10;;
32365;SDS011;18837;46.832;16.838;2023-12-28T02:00:36;13.03;;;9.70;;
32365;SDS011;18837;46.832;16.838;2023-12-28T02:03:03;14.30;;;10.20;;
32365;SDS011;18837;46.832;16.838;2023-12-28T02:05:31;12.70;;;10.20;;
32365;SDS011;18837;46.832;16.838;2023-12-28T02:07:58;15.43;;;10.10;;
32365;SDS011;18837;46.832;16.838;2023-12-28T02:10:24;11.90;;;10.03;;
32365;SDS011;18837;46.832;16.838;2023-12-28T02:12:49;12.87;;;9.30;;
32365;SDS011;18837;46.832;16.838;2023-12-28T02:15:18;12.97;;;10.37;;
32365;SDS011;18837;46.832;16.838;2023-12-28T02:17:52;14.53;;;10.77;;
32365;SDS011;18837;46.832;16.838;2023-12-28T02:20:32;16.03;;;10.93;;
32365;SDS011;18837;46.832;16.838;2023-12-28T02:23:00;13.93;;;10.50;;
32365;SDS011;18837;46.832;16.838;2023-12-28T02:25:27;12.20;;;9.90;;
32365;SDS011;18837;46.832;16.838;2023-12-28T02:27:53;13.60;;;10.97;;
32365;SDS011;18837;46.832;16.838;2023-12-28T02:30:21;13.67;;;10.60;;
32365;SDS011;18837;46.832;16.838;2023-12-28T02:35:25;13.60;;;10.70;;
32365;SDS011;18837;46.832;16.838;2023-12-28T02:37:58;14.77;;;10.70;;
32365;SDS011;18837;46.832;16.838;2023-12-28T02:40:27;13.87;;;10.87;;
32365;SDS011;18837;46.832;16.838;2023-12-28T02:43:00;13.93;;;10.53;;
32365;SDS011;18837;46.832;16.838;2023-12-28T02:45:25;13.93;;;10.33;;
32365;SDS011;18837;46.832;16.838;2023-12-28T02:47:52;15.00;;;10.93;;
32365;SDS011;18837;46.832;16.838;2023-12-28T02:50:17;14.17;;;10.93;;
32365;SDS011;18837;46.832;16.838;2023-12-28T02:52:43;12.93;;;9.73;;
32365;SDS011;18837;46.832;16.838;2023-12-28T02:55:09;14.53;;;10.20;;
32365;SDS011;18837;46.832;16.838;2023-12-28T02:57:35;13.47;;;10.50;;
32365;SDS011;18837;46.832;16.838;2023-12-28T03:00:04;13.57;;;10.50;;
32365;SDS011;18837;46.832;16.838;2023-12-28T03:02:30;15.63;;;11.00;;
32365;SDS011;18837;46.832;16.838;2023-12-28T03:04:56;14.83;;;10.33;;
32365;SDS011;18837;46.832;16.838;2023-12-28T03:07:21;12.67;;;10.43;;
32365;SDS011;18837;46.832;16.838;2023-12-28T03:09:47;13.30;;;9.90;;
32365;SDS011;18837;46.832;16.838;2023-12-28T03:12:13;13.90;;;10.30;;
32365;SDS011;18837;46.832;16.838;2023-12-28T03:14:41;13.80;;;10.47;;
32365;SDS011;18837;46.832;16.838;2023-12-28T03:17:06;14.53;;;10.63;;
32365;SDS011;18837;46.832;16.838;2023-12-28T03:19:33;14.00;;;9.60;;
32365;SDS011;18837;46.832;16.838;2023-12-28T03:21:59;12.27;;;9.53;;
32365;SDS011;18837;46.832;16.838;2023-12-28T03:24:26;13.90;;;10.40;;
32365;SDS011;18837;46.832;16.838;2023-12-28T03:26:51;12.73;;;9.80;;
32365;SDS011;18837;46.832;16.838;2023-12-28T03:29:17;11.80;;;9.23;;
32365;SDS011;18837;46.832;16.838;2023-12-28T03:31:43;12.03;;;10.00;;
32365;SDS011;18837;46.832;16.838;2023-12-28T03:34:09;13.20;;;10.13;;
32365;SDS011;18837;46.832;16.838;2023-12-28T03:36:34;14.57;;;9.37;;
32365;SDS011;18837;46.832;16.838;2023-12-28T03:39:00;13.13;;;10.50;;
32365;SDS011;18837;46.832;16.838;2023-12-28T03:41:26;13.43;;;9.93;;
32365;SDS011;18837;46.832;16.838;2023-12-28T03:43:52;13.27;;;10.07;;
32365;SDS011;18837;46.832;16.838;2023-12-28T03:46:17;13.70;;;10.50;;
32365;SDS011;18837;46.832;16.838;2023-12-28T03:48:43;12.37;;;9.20;;
32365;SDS011;18837;46.832;16.838;2023-12-28T03:51:13;14.27;;;9.97;;
32365;SDS011;18837;46.832;16.838;2023-12-28T03:53:40;13.80;;;9.60;;
32365;SDS011;18837;46.832;16.838;2023-12-28T03:56:06;13.70;;;10.23;;
32365;SDS011;18837;46.832;16.838;2023-12-28T03:58:32;15.13;;;9.93;;
32365;SDS011;18837;46.832;16.838;2023-12-28T04:00:58;14.90;;;10.10;;
32365;SDS011;18837;46.832;16.838;2023-12-28T04:03:24;13.73;;;9.67;;
32365;SDS011;18837;46.832;16.838;2023-12-28T04:05:50;13.47;;;9.93;;
32365;SDS011;18837;46.832;16.838;2023-12-28T04:08:16;14.37;;;9.90;;
32365;SDS011;18837;46.832;16.838;2023-12-28T04:10:42;13.73;;;9.60;;
32365;SDS011;18837;46.832;16.838;2023-12-28T04:13:08;12.33;;;9.07;;
32365;SDS011;18837;46.832;16.838;2023-12-28T04:15:33;12.30;;;9.70;;
32365;SDS011;18837;46.832;16.838;2023-12-28T04:17:59;11.87;;;9.23;;
32365;SDS011;18837;46.832;16.838;2023-12-28T04:20:25;12.10;;;9.73;;
32365;SDS011;18837;46.832;16.838;2023-12-28T04:22:51;12.20;;;9.63;;
32365;SDS011;18837;46.832;16.838;2023-12-28T04:25:17;12.23;;;9.53;;
32365;SDS011;18837;46.832;16.838;2023-12-28T04:27:43;12.27;;;9.63;;
32365;SDS011;18837;46.832;16.838;2023-12-28T04:30:11;13.03;;;10.30;;
32365;SDS011;18837;46.832;16.838;2023-12-28T04:32:37;11.57;;;9.20;;
32365;SDS011;18837;46.832;16.838;2023-12-28T04:35:04;13.33;;;8.87;;
32365;SDS011;18837;46.832;16.838;2023-12-28T04:37:31;13.00;;;9.87;;
32365;SDS011;18837;46.832;16.838;2023-12-28T04:39:57;12.13;;;9.23;;
32365;SDS011;18837;46.832;16.838;2023-12-28T04:42:23;12.00;;;9.80;;
32365;SDS011;18837;46.832;16.838;2023-12-28T04:44:49;11.97;;;9.00;;
32365;SDS011;18837;46.832;16.838;2023-12-28T04:47:15;11.63;;;8.97;;
32365;SDS011;18837;46.832;16.838;2023-12-28T04:49:41;14.70;;;9.47;;
32365;SDS011;18837;46.832;16.838;2023-12-28T04:52:06;12.10;;;9.73;;
32365;SDS011;18837;46.832;16.838;2023-12-28T04:54:32;11.93;;;9.50;;
32365;SDS011;18837;46.832;16.838;2023-12-28T04:56:58;11.77;;;9.73;;
32365;SDS011;18837;46.832;16.838;2023-12-28T04:59:25;13.47;;;9.87;;
32365;SDS011;18837;46.832;16.838;2023-12-28T05:01:51;12.27;;;9.77;;
32365;SDS011;18837;46.832;16.838;2023-12-28T05:04:16;12.73;;;9.77;;
32365;SDS011;18837;46.832;16.838;2023-12-28T05:06:42;11.73;;;9.57;;
32365;SDS011;18837;46.832;16.838;2023-12-28T05:09:08;11.53;;;9.93;;
32365;SDS011;18837;46.832;16.838;2023-12-28T05:11:34;11.20;;;9.37;;
32365;SDS011;18837;46.832;16.838;2023-12-28T05:14:00;12.43;;;10.07;;
32365;SDS011;18837;46.832;16.838;2023-12-28T05:16:26;13.87;;;9.17;;
32365;SDS011;18837;46.832;16.838;2023-12-28T05:18:52;14.00;;;9.83;;
32365;SDS011;18837;46.832;16.838;2023-12-28T05:21:17;12.23;;;9.40;;
32365;SDS011;18837;46.832;16.838;2023-12-28T05:23:43;12.00;;;9.17;;
32365;SDS011;18837;46.832;16.838;2023-12-28T05:26:09;11.30;;;9.37;;
32365;SDS011;18837;46.832;16.838;2023-12-28T05:28:35;12.30;;;9.50;;
32365;SDS011;18837;46.832;16.838;2023-12-28T05:31:01;11.90;;;8.73;;
32365;SDS011;18837;46.832;16.838;2023-12-28T05:33:27;15.43;;;10.00;;
32365;SDS011;18837;46.832;16.838;2023-12-28T05:35:53;13.90;;;10.50;;
32365;SDS011;18837;46.832;16.838;2023-12-28T05:38:18;12.10;;;9.70;;
32365;SDS011;18837;46.832;16.838;2023-12-28T05:40:44;12.20;;;9.63;;
32365;SDS011;18837;46.832;16.838;2023-12-28T05:43:10;12.57;;;9.17;;
32365;SDS011;18837;46.832;16.838;2023-12-28T05:45:36;11.97;;;9.27;;
32365;SDS011;18837;46.832;16.838;2023-12-28T05:48:02;11.77;;;9.43;;
32365;SDS011;18837;46.832;16.838;2023-12-28T05:50:28;14.47;;;10.17;;
32365;SDS011;18837;46.832;16.838;2023-12-28T05:52:54;14.03;;;9.80;;
32365;SDS011;18837;46.832;16.838;2023-12-28T05:55:20;10.90;;;9.20;;
32365;SDS011;18837;46.832;16.838;2023-12-28T05:57:46;12.10;;;9.70;;
32365;SDS011;18837;46.832;16.838;2023-12-28T06:00:12;13.23;;;9.57;;
32365;SDS011;18837;46.832;16.838;2023-12-28T06:02:39;12.10;;;9.33;;
32365;SDS011;18837;46.832;16.838;2023-12-28T06:05:05;11.13;;;9.17;;
32365;SDS011;18837;46.832;16.838;2023-12-28T06:07:31;12.37;;;8.73;;
32365;SDS011;18837;46.832;16.838;2023-12-28T06:09:57;13.00;;;9.67;;
32365;SDS011;18837;46.832;16.838;2023-12-28T06:12:23;11.83;;;9.03;;
32365;SDS011;18837;46.832;16.838;2023-12-28T06:14:48;13.03;;;8.87;;
32365;SDS011;18837;46.832;16.838;2023-12-28T06:17:15;14.13;;;9.83;;
32365;SDS011;18837;46.832;16.838;2023-12-28T06:19:41;14.83;;;9.37;;
32365;SDS011;18837;46.832;16.838;2023-12-28T06:22:07;11.97;;;9.60;;
32365;SDS011;18837;46.832;16.838;2023-12-28T06:24:33;12.60;;;9.57;;
32365;SDS011;18837;46.832;16.838;2023-12-28T06:27:02;12.70;;;9.80;;
32365;SDS011;18837;46.832;16.838;2023-12-28T06:29:28;13.07;;;10.33;;
32365;SDS011;18837;46.832;16.838;2023-12-28T06:31:53;11.93;;;9.30;;
32365;SDS011;18837;46.832;16.838;2023-12-28T06:34:19;11.60;;;9.50;;
32365;SDS011;18837;46.832;16.838;2023-12-28T06:36:45;12.87;;;9.50;;
32365;SDS011;18837;46.832;16.838;2023-12-28T06:39:11;12.40;;;9.40;;
32365;SDS011;18837;46.832;16.838;2023-12-28T06:41:37;11.23;;;9.03;;
32365;SDS011;18837;46.832;16.838;2023-12-28T06:44:02;10.77;;;8.83;;
32365;SDS011;18837;46.832;16.838;2023-12-28T06:46:28;13.80;;;9.73;;
32365;SDS011;18837;46.832;16.838;2023-12-28T06:48:54;13.67;;;9.80;;
32365;SDS011;18837;46.832;16.838;2023-12-28T06:51:20;12.80;;;9.70;;
32365;SDS011;18837;46.832;16.838;2023-12-28T06:53:47;11.43;;;8.63;;
32365;SDS011;18837;46.832;16.838;2023-12-28T06:56:14;14.07;;;9.60;;
32365;SDS011;18837;46.832;16.838;2023-12-28T06:58:40;14.33;;;9.83;;
32365;SDS011;18837;46.832;16.838;2023-12-28T07:01:06;12.63;;;9.00;;
32365;SDS011;18837;46.832;16.838;2023-12-28T07:03:32;11.37;;;8.67;;
32365;SDS011;18837;46.832;16.838;2023-12-28T07:05:59;14.77;;;10.17;;
32365;SDS011;18837;46.832;16.838;2023-12-28T07:08:25;13.53;;;10.07;;
32365;SDS011;18837;46.832;16.838;2023-12-28T07:10:51;14.00;;;10.33;;
32365;SDS011;18837;46.832;16.838;2023-12-28T07:13:16;13.70;;;9.67;;
32365;SDS011;18837;46.832;16.838;2023-12-28T07:15:42;12.80;;;9.70;;
32365;SDS011;18837;46.832;16.838;2023-12-28T07:18:08;13.37;;;9.37;;
32365;SDS011;18837;46.832;16.838;2023-12-28T07:20:34;13.60;;;9.63;;
32365;SDS011;18837;46.832;16.838;2023-12-28T07:23:00;12.57;;;9.97;;
32365;SDS011;18837;46.832;16.838;2023-12-28T07:25:26;11.23;;;9.40;;
32365;SDS011;18837;46.832;16.838;2023-12-28T07:27:52;12.90;;;9.63;;
32365;SDS011;18837;46.832;16.838;2023-12-28T07:30:17;13.63;;;9.80;;
32365;SDS011;18837;46.832;16.838;2023-12-28T07:32:43;12.13;;;9.40;;
32365;SDS011;18837;46.832;16.838;2023-12-28T07:35:10;13.90;;;9.77;;
32365;SDS011;18837;46.832;16.838;2023-12-28T07:37:36;10.63;;;9.23;;
32365;SDS011;18837;46.832;16.838;2023-12-28T07:40:02;12.47;;;9.37;;
32365;SDS011;18837;46.832;16.838;2023-12-28T07:42:28;11.30;;;9.33;;
32365;SDS011;18837;46.832;16.838;2023-12-28T07:44:54;10.93;;;9.60;;
32365;SDS011;18837;46.832;16.838;2023-12-28T07:47:20;11.00;;;8.57;;
32365;SDS011;18837;46.832;16.838;2023-12-28T07:49:46;11.57;;;9.43;;
32365;SDS011;18837;46.832;16.838;2023-12-28T07:52:11;13.97;;;9.93;;
32365;SDS011;18837;46.832;16.838;2023-12-28T07:54:37;10.23;;;8.43;;
32365;SDS011;18837;46.832;16.838;2023-12-28T07:57:03;13.13;;;9.27;;
32365;SDS011;18837;46.832;16.838;2023-12-28T07:59:31;12.00;;;9.07;;
32365;SDS011;18837;46.832;16.838;2023-12-28T08:01:57;10.40;;;8.57;;
32365;SDS011;18837;46.832;16.838;2023-12-28T08:04:23;13.03;;;9.30;;
32365;SDS011;18837;46.832;16.838;2023-12-28T08:06:48;12.40;;;9.60;;
32365;SDS011;18837;46.832;16.838;2023-12-28T08:09:14;12.60;;;8.90;;
32365;SDS011;18837;46.832;16.838;2023-12-28T08:11:40;11.50;;;9.10;;
32365;SDS011;18837;46.832;16.838;2023-12-28T08:14:07;11.63;;;8.93;;
32365;SDS011;18837;46.832;16.838;2023-12-28T08:16:33;10.60;;;8.03;;
32365;SDS011;18837;46.832;16.838;2023-12-28T08:19:00;10.60;;;8.73;;
32365;SDS011;18837;46.832;16.838;2023-12-28T08:21:26;11.97;;;8.50;;
32365;SDS011;18837;46.832;16.838;2023-12-28T08:23:52;10.93;;;8.50;;
32365;SDS011;18837;46.832;16.838;2023-12-28T08:26:18;12.30;;;9.03;;
32365;SDS011;18837;46.832;16.838;2023-12-28T08:28:44;12.07;;;8.57;;
32365;SDS011;18837;46.832;16.838;2023-12-28T08:31:11;9.27;;;8.27;;
32365;SDS011;18837;46.832;16.838;2023-12-28T08:33:37;10.77;;;8.67;;
32365;SDS011;18837;46.832;16.838;2023-12-28T08:36:09;10.20;;;8.37;;
32365;SDS011;18837;46.832;16.838;2023-12-28T08:38:36;9.73;;;8.03;;
32365;SDS011;18837;46.832;16.838;2023-12-28T08:41:02;10.53;;;8.23;;
32365;SDS011;18837;46.832;16.838;2023-12-28T08:43:33;11.23;;;8.53;;
32365;SDS011;18837;46.832;16.838;2023-12-28T08:45:59;10.17;;;7.90;;
32365;SDS011;18837;46.832;16.838;2023-12-28T08:48:25;12.07;;;9.07;;
32365;SDS011;18837;46.832;16.838;2023-12-28T08:50:51;10.90;;;8.60;;
32365;SDS011;18837;46.832;16.838;2023-12-28T08:53:17;10.30;;;8.23;;
32365;SDS011;18837;46.832;16.838;2023-12-28T08:55:43;10.60;;;8.73;;
32365;SDS011;18837;46.832;16.838;2023-12-28T08:58:09;10.77;;;8.63;;
32365;SDS011;18837;46.832;16.838;2023-12-28T09:00:34;11.17;;;8.57;;
32365;SDS011;18837;46.832;16.838;2023-12-28T09:03:00;11.57;;;8.90;;
32365;SDS011;18837;46.832;16.838;2023-12-28T09:05:26;11.77;;;9.33;;
32365;SDS011;18837;46.832;16.838;2023-12-28T09:07:51;12.57;;;8.93;;
32365;SDS011;18837;46.832;16.838;2023-12-28T09:10:17;11.17;;;8.73;;
32365;SDS011;18837;46.832;16.838;2023-12-28T09:12:43;11.30;;;8.87;;
32365;SDS011;18837;46.832;16.838;2023-12-28T09:15:09;10.83;;;8.43;;
32365;SDS011;18837;46.832;16.838;2023-12-28T09:17:34;12.07;;;8.90;;
32365;SDS011;18837;46.832;16.838;2023-12-28T09:20:00;11.80;;;8.97;;
32365;SDS011;18837;46.832;16.838;2023-12-28T09:22:26;13.73;;;9.00;;
32365;SDS011;18837;46.832;16.838;2023-12-28T09:24:52;11.20;;;9.13;;
32365;SDS011;18837;46.832;16.838;2023-12-28T09:27:18;11.37;;;8.47;;
32365;SDS011;18837;46.832;16.838;2023-12-28T09:29:44;10.73;;;8.20;;
32365;SDS011;18837;46.832;16.838;2023-12-28T09:32:12;10.70;;;8.50;;
32365;SDS011;18837;46.832;16.838;2023-12-28T09:34:38;12.03;;;8.77;;
32365;SDS011;18837;46.832;16.838;2023-12-28T09:37:05;11.17;;;8.63;;
32365;SDS011;18837;46.832;16.838;2023-12-28T09:39:31;10.00;;;7.97;;
32365;SDS011;18837;46.832;16.838;2023-12-28T09:41:59;11.93;;;8.70;;
32365;SDS011;18837;46.832;16.838;2023-12-28T09:44:29;10.30;;;8.90;;
32365;SDS011;18837;46.832;16.838;2023-12-28T09:46:57;11.80;;;8.70;;
32365;SDS011;18837;46.832;16.838;2023-12-28T09:49:24;10.83;;;8.70;;
32365;SDS011;18837;46.832;16.838;2023-12-28T09:51:50;13.17;;;8.73;;
32365;SDS011;18837;46.832;16.838;2023-12-28T09:54:16;11.87;;;8.87;;
32365;SDS011;18837;46.832;16.838;2023-12-28T09:56:43;10.83;;;8.77;;
32365;SDS011;18837;46.832;16.838;2023-12-28T09:59:11;11.57;;;7.87;;
32365;SDS011;18837;46.832;16.838;2023-12-28T10:01:39;10.47;;;8.50;;
32365;SDS011;18837;46.832;16.838;2023-12-28T10:04:05;10.70;;;8.90;;
32365;SDS011;18837;46.832;16.838;2023-12-28T10:06:33;11.80;;;8.20;;
32365;SDS011;18837;46.832;16.838;2023-12-28T10:08:59;11.67;;;8.57;;
32365;SDS011;18837;46.832;16.838;2023-12-28T10:11:25;10.93;;;8.17;;
32365;SDS011;18837;46.832;16.838;2023-12-28T10:13:52;12.47;;;8.07;;
32365;SDS011;18837;46.832;16.838;2023-12-28T10:16:19;9.63;;;7.43;;
32365;SDS011;18837;46.832;16.838;2023-12-28T10:18:45;10.23;;;7.93;;
32365;SDS011;18837;46.832;16.838;2023-12-28T10:21:11;9.20;;;7.67;;
32365;SDS011;18837;46.832;16.838;2023-12-28T10:23:37;9.10;;;8.07;;
32365;SDS011;18837;46.832;16.838;2023-12-28T10:26:04;8.50;;;7.40;;
32365;SDS011;18837;46.832;16.838;2023-12-28T10:28:31;10.70;;;7.50;;
32365;SDS011;18837;46.832;16.838;2023-12-28T10:31:02;10.67;;;8.10;;
32365;SDS011;18837;46.832;16.838;2023-12-28T10:33:33;9.67;;;7.47;;
32365;SDS011;18837;46.832;16.838;2023-12-28T10:36:00;8.40;;;7.27;;
32365;SDS011;18837;46.832;16.838;2023-12-28T10:38:32;10.47;;;7.43;;
32365;SDS011;18837;46.832;16.838;2023-12-28T10:41:01;8.53;;;7.17;;
32365;SDS011;18837;46.832;16.838;2023-12-28T10:43:30;8.60;;;7.47;;
32365;SDS011;18837;46.832;16.838;2023-12-28T10:46:00;9.50;;;7.63;;
32365;SDS011;18837;46.832;16.838;2023-12-28T10:48:29;10.70;;;8.37;;
32365;SDS011;18837;46.832;16.838;2023-12-28T10:51:00;11.63;;;7.83;;
32365;SDS011;18837;46.832;16.838;2023-12-28T10:56:17;8.13;;;7.30;;
32365;SDS011;18837;46.832;16.838;2023-12-28T10:58:58;12.07;;;9.20;;
32365;SDS011;18837;46.832;16.838;2023-12-28T11:01:31;13.77;;;9.07;;
32365;SDS011;18837;46.832;16.838;2023-12-28T11:04:07;10.87;;;8.37;;
32365;SDS011;18837;46.832;16.838;2023-12-28T11:06:44;10.03;;;7.57;;
32365;SDS011;18837;46.832;16.838;2023-12-28T11:09:13;13.07;;;7.43;;
32365;SDS011;18837;46.832;16.838;2023-12-28T11:11:45;9.53;;;6.60;;
32365;SDS011;18837;46.832;16.838;2023-12-28T11:14:12;11.87;;;7.63;;
32365;SDS011;18837;46.832;16.838;2023-12-28T11:16:40;10.90;;;7.13;;
32365;SDS011;18837;46.832;16.838;2023-12-28T11:19:07;10.77;;;6.23;;
32365;SDS011;18837;46.832;16.838;2023-12-28T11:21:33;8.63;;;5.80;;
32365;SDS011;18837;46.832;16.838;2023-12-28T11:23:59;10.70;;;6.27;;
32365;SDS011;18837;46.832;16.838;2023-12-28T11:26:26;33.93;;;9.73;;
32365;SDS011;18837;46.832;16.838;2023-12-28T11:29:00;15.97;;;7.17;;
32365;SDS011;18837;46.832;16.838;2023-12-28T11:31:27;8.03;;;6.20;;
32365;SDS011;18837;46.832;16.838;2023-12-28T11:33:53;9.47;;;6.40;;
32365;SDS011;18837;46.832;16.838;2023-12-28T11:36:25;9.53;;;7.07;;
32365;SDS011;18837;46.832;16.838;2023-12-28T11:39:01;13.67;;;7.20;;
32365;SDS011;18837;46.832;16.838;2023-12-28T11:41:30;12.87;;;7.53;;
32365;SDS011;18837;46.832;16.838;2023-12-28T11:44:01;9.00;;;7.00;;
32365;SDS011;18837;46.832;16.838;2023-12-28T11:46:30;10.77;;;6.77;;
32365;SDS011;18837;46.832;16.838;2023-12-28T11:49:03;9.97;;;7.33;;
32365;SDS011;18837;46.832;16.838;2023-12-28T11:51:40;9.83;;;7.13;;
32365;SDS011;18837;46.832;16.838;2023-12-28T11:54:06;10.27;;;6.73;;
32365;SDS011;18837;46.832;16.838;2023-12-28T11:56:32;10.77;;;7.40;;
32365;SDS011;18837;46.832;16.838;2023-12-28T11:58:58;9.83;;;7.17;;
32365;SDS011;18837;46.832;16.838;2023-12-28T12:01:24;8.27;;;6.80;;
32365;SDS011;18837;46.832;16.838;2023-12-28T12:03:50;12.53;;;6.90;;
32365;SDS011;18837;46.832;16.838;2023-12-28T12:06:16;8.10;;;6.57;;
32365;SDS011;18837;46.832;16.838;2023-12-28T12:08:45;10.57;;;6.47;;
32365;SDS011;18837;46.832;16.838;2023-12-28T12:11:16;9.43;;;6.83;;
32365;SDS011;18837;46.832;16.838;2023-12-28T12:13:43;8.30;;;6.80;;
32365;SDS011;18837;46.832;16.838;2023-12-28T12:16:13;8.70;;;6.50;;
32365;SDS011;18837;46.832;16.838;2023-12-28T12:18:39;9.77;;;6.40;;
32365;SDS011;18837;46.832;16.838;2023-12-28T12:21:05;8.90;;;6.33;;
32365;SDS011;18837;46.832;16.838;2023-12-28T12:23:31;8.67;;;6.37;;
32365;SDS011;18837;46.832;16.838;2023-12-28T12:25:57;9.13;;;7.00;;
32365;SDS011;18837;46.832;16.838;2023-12-28T12:28:23;7.07;;;5.80;;
32365;SDS011;18837;46.832;16.838;2023-12-28T12:30:55;8.23;;;5.50;;
32365;SDS011;18837;46.832;16.838;2023-12-28T12:35:57;8.13;;;5.60;;
32365;SDS011;18837;46.832;16.838;2023-12-28T12:38:24;7.40;;;5.60;;
32365;SDS011;18837;46.832;16.838;2023-12-28T12:40:51;8.67;;;6.23;;
32365;SDS011;18837;46.832;16.838;2023-12-28T12:43:20;7.10;;;5.50;;
32365;SDS011;18837;46.832;16.838;2023-12-28T13:11:05;6.83;;;4.93;;
32365;SDS011;18837;46.832;16.838;2023-12-28T13:13:35;6.27;;;4.87;;
32365;SDS011;18837;46.832;16.838;2023-12-28T13:16:27;8.47;;;5.67;;
32365;SDS011;18837;46.832;16.838;2023-12-28T13:29:29;6.00;;;4.80;;
32365;SDS011;18837;46.832;16.838;2023-12-28T13:31:55;6.13;;;5.13;;
32365;SDS011;18837;46.832;16.838;2023-12-28T13:34:21;6.50;;;5.37;;
32365;SDS011;18837;46.832;16.838;2023-12-28T13:36:48;6.23;;;5.40;;
32365;SDS011;18837;46.832;16.838;2023-12-28T13:39:14;6.33;;;5.00;;
32365;SDS011;18837;46.832;16.838;2023-12-28T13:44:25;6.37;;;5.30;;
32365;SDS011;18837;46.832;16.838;2023-12-28T13:46:54;8.63;;;5.50;;
32365;SDS011;18837;46.832;16.838;2023-12-28T13:49:19;6.50;;;4.90;;
32365;SDS011;18837;46.832;16.838;2023-12-28T13:51:50;6.37;;;5.20;;
32365;SDS011;18837;46.832;16.838;2023-12-28T13:54:20;6.83;;;5.17;;
32365;SDS011;18837;46.832;16.838;2023-12-28T14:20:12;5.93;;;4.30;;
32365;SDS011;18837;46.832;16.838;2023-12-28T14:22:42;6.43;;;4.47;;
32365;SDS011;18837;46.832;16.838;2023-12-28T14:25:30;5.73;;;4.70;;
32365;SDS011;18837;46.832;16.838;2023-12-28T14:41:28;5.97;;;4.77;;
32365;SDS011;18837;46.832;16.838;2023-12-28T14:52:46;5.23;;;4.63;;
32365;SDS011;18837;46.832;16.838;2023-12-28T14:55:12;6.27;;;5.07;;
32365;SDS011;18837;46.832;16.838;2023-12-28T14:57:38;7.37;;;5.27;;
32365;SDS011;18837;46.832;16.838;2023-12-28T15:00:05;6.07;;;4.87;;
32365;SDS011;18837;46.832;16.838;2023-12-28T15:02:35;5.37;;;4.80;;
32365;SDS011;18837;46.832;16.838;2023-12-28T15:15:13;6.67;;;5.53;;
32365;SDS011;18837;46.832;16.838;2023-12-28T15:17:55;7.60;;;5.77;;
32365;SDS011;18837;46.832;16.838;2023-12-28T15:29:44;7.60;;;6.10;;
32365;SDS011;18837;46.832;16.838;2023-12-28T15:32:16;7.93;;;6.67;;
32365;SDS011;18837;46.832;16.838;2023-12-28T15:34:42;8.23;;;6.47;;
32365;SDS011;18837;46.832;16.838;2023-12-28T15:37:08;8.03;;;6.13;;
32365;SDS011;18837;46.832;16.838;2023-12-28T15:39:35;7.47;;;6.43;;
32365;SDS011;18837;46.832;16.838;2023-12-28T15:42:03;6.80;;;6.10;;
32365;SDS011;18837;46.832;16.838;2023-12-28T15:44:40;8.57;;;7.23;;
32365;SDS011;18837;46.832;16.838;2023-12-28T15:47:39;7.50;;;6.33;;
32365;SDS011;18837;46.832;16.838;2023-12-28T15:50:10;10.17;;;7.03;;
32365;SDS011;18837;46.832;16.838;2023-12-28T15:52:39;10.30;;;8.30;;
32365;SDS011;18837;46.832;16.838;2023-12-28T16:02:07;9.27;;;7.70;;
32365;SDS011;18837;46.832;16.838;2023-12-28T16:05:32;9.00;;;7.87;;
32365;SDS011;18837;46.832;16.838;2023-12-28T16:08:16;10.33;;;7.87;;
32365;SDS011;18837;46.832;16.838;2023-12-28T16:21:35;12.37;;;8.53;;
32365;SDS011;18837;46.832;16.838;2023-12-28T16:34:55;13.80;;;11.03;;
32365;SDS011;18837;46.832;16.838;2023-12-28T16:38:01;14.50;;;10.13;;
32365;SDS011;18837;46.832;16.838;2023-12-28T16:40:56;14.30;;;10.47;;
32365;SDS011;18837;46.832;16.838;2023-12-28T16:43:31;13.10;;;10.53;;
32365;SDS011;18837;46.832;16.838;2023-12-28T16:54:37;20.70;;;16.63;;